sensor_id;sensor_type;location;lat;lon;timestamp;temperature;humidity
17370;DHT22;8802;52.402;4.920;2022-09-09T00:01:54;20.60;89.30
17370;DHT22;8802;52.402;4.920;2022-09-09T00:04:26;20.60;89.40
17370;DHT22;8802;52.402;4.920;2022-09-09T00:07:03;20.60;89.40
17370;DHT22;8802;52.402;4.920;2022-09-09T00:09:38;20.50;89.40
17370;DHT22;8802;52.402;4.920;2022-09-09T00:12:11;20.50;89.40
17370;DHT22;8802;52.402;4.920;2022-09-09T00:14:47;20.50;89.60
17370;DHT22;8802;52.402;4.920;2022-09-09T00:17:24;20.50;89.50
17370;DHT22;8802;52.402;4.920;2022-09-09T00:19:58;20.50;89.70
17370;DHT22;8802;52.402;4.920;2022-09-09T00:22:29;20.50;89.80
17370;DHT22;8802;52.402;4.920;2022-09-09T00:25:05;20.50;90.00
17370;DHT22;8802;52.402;4.920;2022-09-09T00:27:41;20.40;89.90
17370;DHT22;8802;52.402;4.920;2022-09-09T00:30:17;20.40;89.80
17370;DHT22;8802;52.402;4.920;2022-09-09T00:32:46;20.40;90.00
17370;DHT22;8802;52.402;4.920;2022-09-09T00:35:18;20.40;90.00
17370;DHT22;8802;52.402;4.920;2022-09-09T00:37:51;20.40;90.10
17370;DHT22;8802;52.402;4.920;2022-09-09T00:40:24;20.40;90.10
17370;DHT22;8802;52.402;4.920;2022-09-09T00:43:00;20.40;90.10
17370;DHT22;8802;52.402;4.920;2022-09-09T00:45:55;20.40;90.10
17370;DHT22;8802;52.402;4.920;2022-09-09T00:48:32;20.40;90.20
17370;DHT22;8802;52.402;4.920;2022-09-09T00:51:08;20.40;90.10
17370;DHT22;8802;52.402;4.920;2022-09-09T00:53:41;20.40;90.20
17370;DHT22;8802;52.402;4.920;2022-09-09T00:56:13;20.40;90.20
17370;DHT22;8802;52.402;4.920;2022-09-09T00:58:42;20.40;90.60
17370;DHT22;8802;52.402;4.920;2022-09-09T01:01:11;20.40;90.20
17370;DHT22;8802;52.402;4.920;2022-09-09T01:03:43;20.30;90.20
17370;DHT22;8802;52.402;4.920;2022-09-09T01:06:16;20.30;90.30
17370;DHT22;8802;52.402;4.920;2022-09-09T01:09:03;20.30;90.30
17370;DHT22;8802;52.402;4.920;2022-09-09T01:11:40;20.30;90.30
17370;DHT22;8802;52.402;4.920;2022-09-09T01:14:16;20.30;90.40
17370;DHT22;8802;52.402;4.920;2022-09-09T01:16:46;20.30;90.50
17370;DHT22;8802;52.402;4.920;2022-09-09T01:19:20;20.30;90.50
17370;DHT22;8802;52.402;4.920;2022-09-09T01:21:59;20.30;90.50
17370;DHT22;8802;52.402;4.920;2022-09-09T01:24:36;20.30;90.60
17370;DHT22;8802;52.402;4.920;2022-09-09T01:27:08;20.20;90.60
17370;DHT22;8802;52.402;4.920;2022-09-09T01:29:36;20.30;90.50
17370;DHT22;8802;52.402;4.920;2022-09-09T01:32:41;20.30;90.50
17370;DHT22;8802;52.402;4.920;2022-09-09T01:35:12;20.30;90.50
17370;DHT22;8802;52.402;4.920;2022-09-09T01:37:41;20.20;90.50
17370;DHT22;8802;52.402;4.920;2022-09-09T01:40:08;20.20;90.50
17370;DHT22;8802;52.402;4.920;2022-09-09T01:42:35;20.20;90.70
17370;DHT22;8802;52.402;4.920;2022-09-09T01:45:03;20.20;90.60
17370;DHT22;8802;52.402;4.920;2022-09-09T01:47:30;20.20;90.70
17370;DHT22;8802;52.402;4.920;2022-09-09T01:49:59;20.10;90.70
17370;DHT22;8802;52.402;4.920;2022-09-09T01:52:28;20.10;90.70
17370;DHT22;8802;52.402;4.920;2022-09-09T01:54:55;20.10;90.70
17370;DHT22;8802;52.402;4.920;2022-09-09T01:57:26;20.10;90.80
17370;DHT22;8802;52.402;4.920;2022-09-09T02:00:06;20.10;90.80
17370;DHT22;8802;52.402;4.920;2022-09-09T02:02:38;20.10;90.80
17370;DHT22;8802;52.402;4.920;2022-09-09T02:05:19;20.10;90.80
17370;DHT22;8802;52.402;4.920;2022-09-09T02:07:53;20.10;90.70
17370;DHT22;8802;52.402;4.920;2022-09-09T02:10:28;20.00;90.70
17370;DHT22;8802;52.402;4.920;2022-09-09T02:13:01;20.00;90.70
17370;DHT22;8802;52.402;4.920;2022-09-09T02:15:34;20.00;90.80
17370;DHT22;8802;52.402;4.920;2022-09-09T02:18:06;20.00;90.80
17370;DHT22;8802;52.402;4.920;2022-09-09T02:20:37;20.00;90.80
17370;DHT22;8802;52.402;4.920;2022-09-09T02:23:05;20.00;90.80
17370;DHT22;8802;52.402;4.920;2022-09-09T02:25:34;19.90;90.70
17370;DHT22;8802;52.402;4.920;2022-09-09T02:28:04;19.90;90.80
17370;DHT22;8802;52.402;4.920;2022-09-09T02:30:34;19.90;90.90
17370;DHT22;8802;52.402;4.920;2022-09-09T02:33:04;19.90;90.90
17370;DHT22;8802;52.402;4.920;2022-09-09T02:35:32;19.90;90.90
17370;DHT22;8802;52.402;4.920;2022-09-09T02:38:07;19.90;91.00
17370;DHT22;8802;52.402;4.920;2022-09-09T02:40:34;19.80;91.00
17370;DHT22;8802;52.402;4.920;2022-09-09T02:43:01;19.80;91.10
17370;DHT22;8802;52.402;4.920;2022-09-09T02:45:34;19.80;91.10
17370;DHT22;8802;52.402;4.920;2022-09-09T02:48:07;19.80;91.10
17370;DHT22;8802;52.402;4.920;2022-09-09T02:50:41;19.80;91.00
17370;DHT22;8802;52.402;4.920;2022-09-09T02:53:16;19.80;91.00
17370;DHT22;8802;52.402;4.920;2022-09-09T02:55:47;19.80;91.40
17370;DHT22;8802;52.402;4.920;2022-09-09T02:58:16;19.80;91.00
17370;DHT22;8802;52.402;4.920;2022-09-09T03:00:45;19.80;91.00
17370;DHT22;8802;52.402;4.920;2022-09-09T03:03:12;19.80;91.00
17370;DHT22;8802;52.402;4.920;2022-09-09T03:05:39;19.70;91.00
17370;DHT22;8802;52.402;4.920;2022-09-09T03:08:06;19.70;91.00
17370;DHT22;8802;52.402;4.920;2022-09-09T03:10:34;19.70;91.00
17370;DHT22;8802;52.402;4.920;2022-09-09T03:13:02;19.70;91.00
17370;DHT22;8802;52.402;4.920;2022-09-09T03:15:30;19.70;91.20
17370;DHT22;8802;52.402;4.920;2022-09-09T03:17:56;19.70;91.20
17370;DHT22;8802;52.402;4.920;2022-09-09T03:20:24;19.70;91.20
17370;DHT22;8802;52.402;4.920;2022-09-09T03:22:51;19.70;91.20
17370;DHT22;8802;52.402;4.920;2022-09-09T03:25:18;19.70;91.30
17370;DHT22;8802;52.402;4.920;2022-09-09T03:27:47;19.70;91.30
17370;DHT22;8802;52.402;4.920;2022-09-09T03:30:14;19.70;91.20
17370;DHT22;8802;52.402;4.920;2022-09-09T03:32:41;19.60;91.10
17370;DHT22;8802;52.402;4.920;2022-09-09T03:35:08;19.60;91.20
17370;DHT22;8802;52.402;4.920;2022-09-09T03:37:35;19.60;91.30
17370;DHT22;8802;52.402;4.920;2022-09-09T03:40:05;19.60;91.20
17370;DHT22;8802;52.402;4.920;2022-09-09T03:42:32;19.60;91.20
17370;DHT22;8802;52.402;4.920;2022-09-09T03:45:00;19.60;91.30
17370;DHT22;8802;52.402;4.920;2022-09-09T03:47:27;19.60;91.30
17370;DHT22;8802;52.402;4.920;2022-09-09T03:49:54;19.50;91.20
17370;DHT22;8802;52.402;4.920;2022-09-09T03:52:21;19.50;91.20
17370;DHT22;8802;52.402;4.920;2022-09-09T03:54:50;19.50;91.20
17370;DHT22;8802;52.402;4.920;2022-09-09T03:57:18;19.50;91.20
17370;DHT22;8802;52.402;4.920;2022-09-09T03:59:45;19.50;91.30
17370;DHT22;8802;52.402;4.920;2022-09-09T04:02:13;19.50;91.30
17370;DHT22;8802;52.402;4.920;2022-09-09T04:04:41;19.50;91.40
17370;DHT22;8802;52.402;4.920;2022-09-09T04:07:07;19.50;91.30
17370;DHT22;8802;52.402;4.920;2022-09-09T04:09:34;19.50;91.30
17370;DHT22;8802;52.402;4.920;2022-09-09T04:12:02;19.40;91.40
17370;DHT22;8802;52.402;4.920;2022-09-09T04:14:29;19.40;91.30
17370;DHT22;8802;52.402;4.920;2022-09-09T04:16:56;19.40;91.30
17370;DHT22;8802;52.402;4.920;2022-09-09T04:19:26;19.40;91.40
17370;DHT22;8802;52.402;4.920;2022-09-09T04:21:53;19.40;91.30
17370;DHT22;8802;52.402;4.920;2022-09-09T04:24:20;19.40;91.30
17370;DHT22;8802;52.402;4.920;2022-09-09T04:26:48;19.30;91.30
17370;DHT22;8802;52.402;4.920;2022-09-09T04:29:15;19.30;91.30
17370;DHT22;8802;52.402;4.920;2022-09-09T04:31:42;19.30;91.30
17370;DHT22;8802;52.402;4.920;2022-09-09T04:34:10;19.30;91.30
17370;DHT22;8802;52.402;4.920;2022-09-09T04:36:38;19.20;91.40
17370;DHT22;8802;52.402;4.920;2022-09-09T04:39:06;19.20;91.40
17370;DHT22;8802;52.402;4.920;2022-09-09T04:41:32;19.20;91.30
17370;DHT22;8802;52.402;4.920;2022-09-09T04:44:03;19.20;91.40
17370;DHT22;8802;52.402;4.920;2022-09-09T04:46:30;19.20;91.40
17370;DHT22;8802;52.402;4.920;2022-09-09T04:48:57;19.20;91.40
17370;DHT22;8802;52.402;4.920;2022-09-09T04:51:24;19.20;91.40
17370;DHT22;8802;52.402;4.920;2022-09-09T04:53:52;19.20;91.40
17370;DHT22;8802;52.402;4.920;2022-09-09T04:56:19;19.20;91.50
17370;DHT22;8802;52.402;4.920;2022-09-09T04:58:46;19.20;91.50
17370;DHT22;8802;52.402;4.920;2022-09-09T05:01:15;19.10;91.40
17370;DHT22;8802;52.402;4.920;2022-09-09T05:03:43;19.10;91.50
17370;DHT22;8802;52.402;4.920;2022-09-09T05:06:12;19.10;91.50
17370;DHT22;8802;52.402;4.920;2022-09-09T05:08:41;19.10;91.60
17370;DHT22;8802;52.402;4.920;2022-09-09T05:11:15;19.10;91.50
17370;DHT22;8802;52.402;4.920;2022-09-09T05:13:43;19.10;91.50
17370;DHT22;8802;52.402;4.920;2022-09-09T05:16:10;19.10;91.50
17370;DHT22;8802;52.402;4.920;2022-09-09T05:18:37;19.10;91.60
17370;DHT22;8802;52.402;4.920;2022-09-09T05:21:04;19.10;91.60
17370;DHT22;8802;52.402;4.920;2022-09-09T05:23:32;19.10;91.60
17370;DHT22;8802;52.402;4.920;2022-09-09T05:26:00;19.10;91.70
17370;DHT22;8802;52.402;4.920;2022-09-09T05:28:28;19.10;91.70
17370;DHT22;8802;52.402;4.920;2022-09-09T05:30:59;19.10;91.60
17370;DHT22;8802;52.402;4.920;2022-09-09T05:33:27;19.10;91.70
17370;DHT22;8802;52.402;4.920;2022-09-09T05:35:58;19.10;91.60
17370;DHT22;8802;52.402;4.920;2022-09-09T05:38:25;19.10;91.50
17370;DHT22;8802;52.402;4.920;2022-09-09T05:40:53;19.10;91.50
17370;DHT22;8802;52.402;4.920;2022-09-09T05:43:20;19.10;91.50
17370;DHT22;8802;52.402;4.920;2022-09-09T05:45:58;19.10;91.60
17370;DHT22;8802;52.402;4.920;2022-09-09T05:48:28;19.10;91.60
17370;DHT22;8802;52.402;4.920;2022-09-09T05:50:55;19.10;91.50
17370;DHT22;8802;52.402;4.920;2022-09-09T05:53:22;19.10;91.60
17370;DHT22;8802;52.402;4.920;2022-09-09T05:55:49;19.10;91.60
17370;DHT22;8802;52.402;4.920;2022-09-09T05:58:16;19.10;91.50
17370;DHT22;8802;52.402;4.920;2022-09-09T06:00:43;19.10;91.60
17370;DHT22;8802;52.402;4.920;2022-09-09T06:03:12;19.10;91.60
17370;DHT22;8802;52.402;4.920;2022-09-09T06:05:39;19.10;91.60
17370;DHT22;8802;52.402;4.920;2022-09-09T06:08:06;19.10;91.60
17370;DHT22;8802;52.402;4.920;2022-09-09T06:10:33;19.10;91.60
17370;DHT22;8802;52.402;4.920;2022-09-09T06:13:00;19.10;91.60
17370;DHT22;8802;52.402;4.920;2022-09-09T06:15:27;19.10;91.70
17370;DHT22;8802;52.402;4.920;2022-09-09T06:17:56;19.10;91.70
17370;DHT22;8802;52.402;4.920;2022-09-09T06:20:24;19.10;91.80
17370;DHT22;8802;52.402;4.920;2022-09-09T06:22:51;19.10;91.90
17370;DHT22;8802;52.402;4.920;2022-09-09T06:25:18;19.10;91.80
17370;DHT22;8802;52.402;4.920;2022-09-09T06:27:48;19.20;91.90
17370;DHT22;8802;52.402;4.920;2022-09-09T06:30:16;19.20;91.90
17370;DHT22;8802;52.402;4.920;2022-09-09T06:32:43;19.20;91.90
17370;DHT22;8802;52.402;4.920;2022-09-09T06:35:10;19.20;91.90
17370;DHT22;8802;52.402;4.920;2022-09-09T06:37:44;19.20;91.90
17370;DHT22;8802;52.402;4.920;2022-09-09T06:40:14;19.20;91.90
17370;DHT22;8802;52.402;4.920;2022-09-09T06:42:41;19.30;91.90
17370;DHT22;8802;52.402;4.920;2022-09-09T06:45:09;19.30;91.90
17370;DHT22;8802;52.402;4.920;2022-09-09T06:47:36;19.30;91.90
17370;DHT22;8802;52.402;4.920;2022-09-09T06:50:04;19.30;91.90
17370;DHT22;8802;52.402;4.920;2022-09-09T06:52:32;19.30;91.90
17370;DHT22;8802;52.402;4.920;2022-09-09T06:55:01;19.40;91.90
17370;DHT22;8802;52.402;4.920;2022-09-09T06:57:28;19.40;91.90
17370;DHT22;8802;52.402;4.920;2022-09-09T06:59:55;19.40;91.90
17370;DHT22;8802;52.402;4.920;2022-09-09T07:02:22;19.50;91.90
17370;DHT22;8802;52.402;4.920;2022-09-09T07:04:50;19.50;91.90
17370;DHT22;8802;52.402;4.920;2022-09-09T07:07:17;19.60;92.00
17370;DHT22;8802;52.402;4.920;2022-09-09T07:09:45;19.60;92.30
17370;DHT22;8802;52.402;4.920;2022-09-09T07:12:13;19.70;91.80
17370;DHT22;8802;52.402;4.920;2022-09-09T07:14:40;19.70;91.80
17370;DHT22;8802;52.402;4.920;2022-09-09T07:17:07;19.70;91.70
17370;DHT22;8802;52.402;4.920;2022-09-09T07:19:34;19.70;91.60
17370;DHT22;8802;52.402;4.920;2022-09-09T07:22:02;19.80;91.60
17370;DHT22;8802;52.402;4.920;2022-09-09T07:24:29;19.80;91.60
17370;DHT22;8802;52.402;4.920;2022-09-09T07:26:56;19.90;91.50
17370;DHT22;8802;52.402;4.920;2022-09-09T07:29:24;19.90;91.40
17370;DHT22;8802;52.402;4.920;2022-09-09T07:31:51;19.90;91.40
17370;DHT22;8802;52.402;4.920;2022-09-09T07:34:18;19.90;91.30
17370;DHT22;8802;52.402;4.920;2022-09-09T07:36:45;19.90;91.30
17370;DHT22;8802;52.402;4.920;2022-09-09T07:39:13;20.00;91.40
17370;DHT22;8802;52.402;4.920;2022-09-09T07:41:44;20.00;91.30
17370;DHT22;8802;52.402;4.920;2022-09-09T07:44:16;20.00;91.20
17370;DHT22;8802;52.402;4.920;2022-09-09T07:46:45;20.00;91.20
17370;DHT22;8802;52.402;4.920;2022-09-09T07:49:13;20.00;91.30
17370;DHT22;8802;52.402;4.920;2022-09-09T07:51:42;20.00;91.20
17370;DHT22;8802;52.402;4.920;2022-09-09T07:54:11;20.00;91.20
17370;DHT22;8802;52.402;4.920;2022-09-09T07:56:39;20.10;91.20
17370;DHT22;8802;52.402;4.920;2022-09-09T07:59:07;20.10;91.20
17370;DHT22;8802;52.402;4.920;2022-09-09T08:01:37;20.10;91.20
17370;DHT22;8802;52.402;4.920;2022-09-09T08:04:08;20.10;91.20
17370;DHT22;8802;52.402;4.920;2022-09-09T08:06:37;20.10;91.10
17370;DHT22;8802;52.402;4.920;2022-09-09T08:09:05;20.20;91.10
17370;DHT22;8802;52.402;4.920;2022-09-09T08:11:32;20.20;91.10
17370;DHT22;8802;52.402;4.920;2022-09-09T08:14:01;20.20;91.10
17370;DHT22;8802;52.402;4.920;2022-09-09T08:16:30;20.20;91.20
17370;DHT22;8802;52.402;4.920;2022-09-09T08:18:58;20.20;91.10
17370;DHT22;8802;52.402;4.920;2022-09-09T08:21:28;20.30;91.10
17370;DHT22;8802;52.402;4.920;2022-09-09T08:23:57;20.20;91.00
17370;DHT22;8802;52.402;4.920;2022-09-09T08:26:25;20.30;91.00
17370;DHT22;8802;52.402;4.920;2022-09-09T08:28:55;20.30;91.10
17370;DHT22;8802;52.402;4.920;2022-09-09T08:31:23;20.40;90.90
17370;DHT22;8802;52.402;4.920;2022-09-09T08:33:50;20.40;90.90
17370;DHT22;8802;52.402;4.920;2022-09-09T08:36:19;20.40;90.80
17370;DHT22;8802;52.402;4.920;2022-09-09T08:38:49;20.50;90.80
17370;DHT22;8802;52.402;4.920;2022-09-09T08:41:30;20.50;90.90
17370;DHT22;8802;52.402;4.920;2022-09-09T08:44:03;20.50;90.80
17370;DHT22;8802;52.402;4.920;2022-09-09T08:46:36;20.60;90.80
17370;DHT22;8802;52.402;4.920;2022-09-09T08:49:12;20.60;90.70
17370;DHT22;8802;52.402;4.920;2022-09-09T08:51:43;20.60;90.60
17370;DHT22;8802;52.402;4.920;2022-09-09T08:54:11;20.60;90.60
17370;DHT22;8802;52.402;4.920;2022-09-09T08:56:38;20.60;90.60
17370;DHT22;8802;52.402;4.920;2022-09-09T08:59:05;20.60;90.50
17370;DHT22;8802;52.402;4.920;2022-09-09T09:01:42;20.70;90.90
17370;DHT22;8802;52.402;4.920;2022-09-09T09:04:34;20.70;90.50
17370;DHT22;8802;52.402;4.920;2022-09-09T09:07:13;20.70;90.50
17370;DHT22;8802;52.402;4.920;2022-09-09T09:09:53;20.70;90.30
17370;DHT22;8802;52.402;4.920;2022-09-09T09:12:26;20.80;90.40
17370;DHT22;8802;52.402;4.920;2022-09-09T09:14:54;20.80;90.30
17370;DHT22;8802;52.402;4.920;2022-09-09T09:17:25;20.80;90.20
17370;DHT22;8802;52.402;4.920;2022-09-09T09:19:53;20.80;90.10
17370;DHT22;8802;52.402;4.920;2022-09-09T09:22:22;20.90;90.00
17370;DHT22;8802;52.402;4.920;2022-09-09T09:24:54;20.90;90.40
17370;DHT22;8802;52.402;4.920;2022-09-09T09:27:30;20.90;90.00
17370;DHT22;8802;52.402;4.920;2022-09-09T09:30:00;20.90;90.10
17370;DHT22;8802;52.402;4.920;2022-09-09T09:32:31;20.90;90.00
17370;DHT22;8802;52.402;4.920;2022-09-09T09:35:01;20.90;90.00
17370;DHT22;8802;52.402;4.920;2022-09-09T09:37:32;20.90;89.60
17370;DHT22;8802;52.402;4.920;2022-09-09T09:40:10;20.90;89.50
17370;DHT22;8802;52.402;4.920;2022-09-09T09:42:37;20.90;89.40
17370;DHT22;8802;52.402;4.920;2022-09-09T09:45:16;20.90;89.50
17370;DHT22;8802;52.402;4.920;2022-09-09T09:47:43;20.90;89.30
17370;DHT22;8802;52.402;4.920;2022-09-09T09:50:16;20.90;89.30
17370;DHT22;8802;52.402;4.920;2022-09-09T09:52:54;20.80;89.20
17370;DHT22;8802;52.402;4.920;2022-09-09T09:55:24;20.90;89.00
17370;DHT22;8802;52.402;4.920;2022-09-09T09:57:53;20.90;89.10
17370;DHT22;8802;52.402;4.920;2022-09-09T10:00:22;20.90;89.10
17370;DHT22;8802;52.402;4.920;2022-09-09T10:02:50;20.90;89.30
17370;DHT22;8802;52.402;4.920;2022-09-09T10:05:20;21.00;89.30
17370;DHT22;8802;52.402;4.920;2022-09-09T10:08:00;21.00;89.20
17370;DHT22;8802;52.402;4.920;2022-09-09T10:10:39;21.00;89.30
17370;DHT22;8802;52.402;4.920;2022-09-09T10:13:14;21.00;89.20
17370;DHT22;8802;52.402;4.920;2022-09-09T10:15:48;21.00;89.10
17370;DHT22;8802;52.402;4.920;2022-09-09T10:18:47;21.00;89.10
17370;DHT22;8802;52.402;4.920;2022-09-09T10:21:38;21.00;89.30
17370;DHT22;8802;52.402;4.920;2022-09-09T10:27:14;21.00;89.80
17370;DHT22;8802;52.402;4.920;2022-09-09T10:30:03;21.10;89.60
17370;DHT22;8802;52.402;4.920;2022-09-09T10:32:45;21.10;89.60
17370;DHT22;8802;52.402;4.920;2022-09-09T10:35:20;21.20;89.60
17370;DHT22;8802;52.402;4.920;2022-09-09T10:38:05;21.20;89.30
17370;DHT22;8802;52.402;4.920;2022-09-09T10:40:40;21.30;89.50
17370;DHT22;8802;52.402;4.920;2022-09-09T10:43:25;21.30;89.30
17370;DHT22;8802;52.402;4.920;2022-09-09T10:46:04;21.40;88.80
17370;DHT22;8802;52.402;4.920;2022-09-09T10:48:46;21.40;88.60
17370;DHT22;8802;52.402;4.920;2022-09-09T10:51:28;21.40;88.80
17370;DHT22;8802;52.402;4.920;2022-09-09T10:54:17;21.40;88.70
17370;DHT22;8802;52.402;4.920;2022-09-09T10:56:52;21.50;88.80
17370;DHT22;8802;52.402;4.920;2022-09-09T10:59:27;21.50;88.70
17370;DHT22;8802;52.402;4.920;2022-09-09T11:01:59;21.60;88.60
17370;DHT22;8802;52.402;4.920;2022-09-09T11:04:31;21.60;88.50
17370;DHT22;8802;52.402;4.920;2022-09-09T11:07:05;21.70;88.60
17370;DHT22;8802;52.402;4.920;2022-09-09T11:09:37;21.70;88.30
17370;DHT22;8802;52.402;4.920;2022-09-09T11:12:05;21.80;88.30
17370;DHT22;8802;52.402;4.920;2022-09-09T11:14:43;21.90;88.30
17370;DHT22;8802;52.402;4.920;2022-09-09T11:17:14;21.90;87.50
17370;DHT22;8802;52.402;4.920;2022-09-09T11:19:43;22.00;87.50
17370;DHT22;8802;52.402;4.920;2022-09-09T11:22:17;22.10;87.20
17370;DHT22;8802;52.402;4.920;2022-09-09T11:24:49;22.10;87.60
17370;DHT22;8802;52.402;4.920;2022-09-09T11:27:21;22.20;86.40
17370;DHT22;8802;52.402;4.920;2022-09-09T11:30:13;22.20;86.60
17370;DHT22;8802;52.402;4.920;2022-09-09T11:33:03;22.20;86.80
17370;DHT22;8802;52.402;4.920;2022-09-09T11:35:41;22.30;86.80
17370;DHT22;8802;52.402;4.920;2022-09-09T11:38:19;22.30;86.30
17370;DHT22;8802;52.402;4.920;2022-09-09T11:40:55;22.30;86.10
17370;DHT22;8802;52.402;4.920;2022-09-09T11:43:26;22.30;85.80
17370;DHT22;8802;52.402;4.920;2022-09-09T11:45:57;22.30;86.00
17370;DHT22;8802;52.402;4.920;2022-09-09T11:48:30;22.30;86.90
17370;DHT22;8802;52.402;4.920;2022-09-09T11:51:02;22.30;85.90
17370;DHT22;8802;52.402;4.920;2022-09-09T11:53:31;22.40;86.00
17370;DHT22;8802;52.402;4.920;2022-09-09T11:56:07;22.40;85.80
17370;DHT22;8802;52.402;4.920;2022-09-09T11:58:38;22.40;85.90
17370;DHT22;8802;52.402;4.920;2022-09-09T12:01:27;22.30;86.00
17370;DHT22;8802;52.402;4.920;2022-09-09T12:04:05;22.30;85.90
17370;DHT22;8802;52.402;4.920;2022-09-09T12:06:42;22.30;85.80
17370;DHT22;8802;52.402;4.920;2022-09-09T12:09:18;22.40;86.00
17370;DHT22;8802;52.402;4.920;2022-09-09T12:11:46;22.40;86.10
17370;DHT22;8802;52.402;4.920;2022-09-09T12:14:20;22.40;85.80
17370;DHT22;8802;52.402;4.920;2022-09-09T12:16:49;22.40;86.00
17370;DHT22;8802;52.402;4.920;2022-09-09T12:19:21;22.40;86.00
17370;DHT22;8802;52.402;4.920;2022-09-09T12:21:56;22.40;85.90
17370;DHT22;8802;52.402;4.920;2022-09-09T12:24:30;22.40;85.90
17370;DHT22;8802;52.402;4.920;2022-09-09T12:27:05;22.50;85.80
17370;DHT22;8802;52.402;4.920;2022-09-09T12:29:43;22.50;86.10
17370;DHT22;8802;52.402;4.920;2022-09-09T12:32:15;22.50;86.30
17370;DHT22;8802;52.402;4.920;2022-09-09T12:34:47;22.60;86.20
17370;DHT22;8802;52.402;4.920;2022-09-09T12:37:21;22.60;85.90
17370;DHT22;8802;52.402;4.920;2022-09-09T12:39:54;22.60;85.50
17370;DHT22;8802;52.402;4.920;2022-09-09T12:42:23;22.70;85.60
17370;DHT22;8802;52.402;4.920;2022-09-09T12:44:54;22.70;85.50
17370;DHT22;8802;52.402;4.920;2022-09-09T12:47:27;22.70;85.20
17370;DHT22;8802;52.402;4.920;2022-09-09T12:49:56;22.70;85.30
17370;DHT22;8802;52.402;4.920;2022-09-09T12:52:27;22.70;85.30
17370;DHT22;8802;52.402;4.920;2022-09-09T12:54:55;22.70;85.20
17370;DHT22;8802;52.402;4.920;2022-09-09T12:57:24;22.70;85.20
17370;DHT22;8802;52.402;4.920;2022-09-09T12:59:52;22.70;85.30
17370;DHT22;8802;52.402;4.920;2022-09-09T13:02:21;22.70;85.40
17370;DHT22;8802;52.402;4.920;2022-09-09T13:04:50;22.70;85.40
17370;DHT22;8802;52.402;4.920;2022-09-09T13:07:18;22.60;85.70
17370;DHT22;8802;52.402;4.920;2022-09-09T13:09:46;22.60;85.70
17370;DHT22;8802;52.402;4.920;2022-09-09T13:12:16;22.60;86.50
17370;DHT22;8802;52.402;4.920;2022-09-09T13:14:46;22.60;85.50
17370;DHT22;8802;52.402;4.920;2022-09-09T13:17:20;22.60;85.50
17370;DHT22;8802;52.402;4.920;2022-09-09T13:19:50;22.60;85.70
17370;DHT22;8802;52.402;4.920;2022-09-09T13:22:26;22.60;86.00
17370;DHT22;8802;52.402;4.920;2022-09-09T13:25:05;22.60;87.20
17370;DHT22;8802;52.402;4.920;2022-09-09T13:27:35;22.60;86.60
17370;DHT22;8802;52.402;4.920;2022-09-09T13:30:20;22.60;87.00
17370;DHT22;8802;52.402;4.920;2022-09-09T13:32:48;22.60;87.10
17370;DHT22;8802;52.402;4.920;2022-09-09T13:35:28;22.50;87.00
17370;DHT22;8802;52.402;4.920;2022-09-09T13:37:55;22.60;87.00
17370;DHT22;8802;52.402;4.920;2022-09-09T13:40:23;22.60;87.30
17370;DHT22;8802;52.402;4.920;2022-09-09T13:42:53;22.50;87.10
17370;DHT22;8802;52.402;4.920;2022-09-09T13:45:24;22.50;87.00
17370;DHT22;8802;52.402;4.920;2022-09-09T13:47:52;22.50;87.00
17370;DHT22;8802;52.402;4.920;2022-09-09T13:50:21;22.50;87.20
17370;DHT22;8802;52.402;4.920;2022-09-09T13:52:51;22.40;87.00
17370;DHT22;8802;52.402;4.920;2022-09-09T13:55:19;22.40;87.10
17370;DHT22;8802;52.402;4.920;2022-09-09T13:57:51;22.40;87.20
17370;DHT22;8802;52.402;4.920;2022-09-09T14:00:18;22.40;87.30
17370;DHT22;8802;52.402;4.920;2022-09-09T14:02:46;22.40;87.00
17370;DHT22;8802;52.402;4.920;2022-09-09T14:05:13;22.40;86.80
17370;DHT22;8802;52.402;4.920;2022-09-09T14:07:41;22.40;86.90
17370;DHT22;8802;52.402;4.920;2022-09-09T14:10:11;22.40;86.80
17370;DHT22;8802;52.402;4.920;2022-09-09T14:12:38;22.40;87.60
17370;DHT22;8802;52.402;4.920;2022-09-09T14:15:07;22.40;86.80
17370;DHT22;8802;52.402;4.920;2022-09-09T14:17:36;22.40;86.80
17370;DHT22;8802;52.402;4.920;2022-09-09T14:20:03;22.40;87.00
17370;DHT22;8802;52.402;4.920;2022-09-09T14:22:33;22.40;87.00
17370;DHT22;8802;52.402;4.920;2022-09-09T14:25:00;22.40;87.00
17370;DHT22;8802;52.402;4.920;2022-09-09T14:27:28;22.40;86.70
17370;DHT22;8802;52.402;4.920;2022-09-09T14:29:55;22.40;86.80
17370;DHT22;8802;52.402;4.920;2022-09-09T14:32:23;22.40;86.80
17370;DHT22;8802;52.402;4.920;2022-09-09T14:34:50;22.50;87.00
17370;DHT22;8802;52.402;4.920;2022-09-09T14:37:17;22.50;87.00
17370;DHT22;8802;52.402;4.920;2022-09-09T14:39:44;22.50;86.80
17370;DHT22;8802;52.402;4.920;2022-09-09T14:42:12;22.50;86.90
17370;DHT22;8802;52.402;4.920;2022-09-09T14:44:41;22.50;86.60
17370;DHT22;8802;52.402;4.920;2022-09-09T14:47:08;22.50;86.50
17370;DHT22;8802;52.402;4.920;2022-09-09T14:49:35;22.50;86.50
17370;DHT22;8802;52.402;4.920;2022-09-09T14:52:02;22.50;86.60
17370;DHT22;8802;52.402;4.920;2022-09-09T14:54:29;22.60;86.90
17370;DHT22;8802;52.402;4.920;2022-09-09T14:56:57;22.50;87.00
17370;DHT22;8802;52.402;4.920;2022-09-09T14:59:25;22.60;86.90
17370;DHT22;8802;52.402;4.920;2022-09-09T15:01:53;22.60;86.60
17370;DHT22;8802;52.402;4.920;2022-09-09T15:04:20;22.60;86.40
17370;DHT22;8802;52.402;4.920;2022-09-09T15:06:47;22.60;86.30
17370;DHT22;8802;52.402;4.920;2022-09-09T15:09:15;22.60;86.00
17370;DHT22;8802;52.402;4.920;2022-09-09T15:11:42;22.50;85.70
17370;DHT22;8802;52.402;4.920;2022-09-09T15:14:09;22.50;85.40
17370;DHT22;8802;52.402;4.920;2022-09-09T15:16:38;22.50;85.30
17370;DHT22;8802;52.402;4.920;2022-09-09T15:19:06;22.50;85.30
17370;DHT22;8802;52.402;4.920;2022-09-09T15:21:35;22.50;85.60
17370;DHT22;8802;52.402;4.920;2022-09-09T15:24:04;22.50;86.00
17370;DHT22;8802;52.402;4.920;2022-09-09T15:26:32;22.50;86.10
17370;DHT22;8802;52.402;4.920;2022-09-09T15:29:00;22.50;86.10
17370;DHT22;8802;52.402;4.920;2022-09-09T15:31:28;22.50;86.40
17370;DHT22;8802;52.402;4.920;2022-09-09T15:33:58;22.40;87.00
17370;DHT22;8802;52.402;4.920;2022-09-09T15:36:30;22.40;87.40
17370;DHT22;8802;52.402;4.920;2022-09-09T15:38:57;22.40;88.10
17370;DHT22;8802;52.402;4.920;2022-09-09T15:41:25;22.40;88.40
17370;DHT22;8802;52.402;4.920;2022-09-09T15:43:56;22.30;88.70
17370;DHT22;8802;52.402;4.920;2022-09-09T15:46:29;22.30;88.80
17370;DHT22;8802;52.402;4.920;2022-09-09T15:48:59;22.20;88.90
17370;DHT22;8802;52.402;4.920;2022-09-09T15:51:31;22.20;89.10
17370;DHT22;8802;52.402;4.920;2022-09-09T15:53:58;22.10;89.10
17370;DHT22;8802;52.402;4.920;2022-09-09T15:56:27;22.10;89.30
17370;DHT22;8802;52.402;4.920;2022-09-09T15:58:56;22.10;89.50
17370;DHT22;8802;52.402;4.920;2022-09-09T16:01:23;22.00;89.60
17370;DHT22;8802;52.402;4.920;2022-09-09T16:03:50;22.00;90.00
17370;DHT22;8802;52.402;4.920;2022-09-09T16:06:19;21.90;90.10
17370;DHT22;8802;52.402;4.920;2022-09-09T16:08:49;21.90;90.20
17370;DHT22;8802;52.402;4.920;2022-09-09T16:11:19;21.80;90.40